Aylmer, Canada
Current Conditions -  °F | °C
As of 4:00 AM on Wednesday 28 Jan 2015 (Local Time) from CYOW Reporting Station
Scattered Clouds Scattered Clouds  
Wind Chill: -15°   Ceiling: Unl
Heat Index:   Visibility: 15mi
Dew Point: -8°   Wind: 12mph
Humidity: 66%   Direction: 310°NW
Pressure: 30.09"   Gusts: NA
Location:  45.4°N, 75.85°W
Report Text: CYOW 280900Z 31010KT 15SM SCT240 M17/M22 A3009 RMK CI3 SLP197
Loading
Personal Weather Stations






























Interactive Weather Map New forecast layout! Learn more

10-Day Weather Forecast

Advertisements
Track Severe Weather on mobile